sensor_id;sensor_type;location;lat;lon;timestamp;P1;durP1;ratioP1;P2;durP2;ratioP2
35562;SDS011;21665;40.108;18.302;2024-01-16T00:00:53;19.73;;;7.35;;
35562;SDS011;21665;40.108;18.302;2024-01-16T00:03:20;12.68;;;7.10;;
35562;SDS011;21665;40.108;18.302;2024-01-16T00:05:46;17.75;;;7.40;;
35562;SDS011;21665;40.108;18.302;2024-01-16T00:08:13;15.52;;;7.95;;
35562;SDS011;21665;40.108;18.302;2024-01-16T00:10:39;14.48;;;7.30;;
35562;SDS011;21665;40.108;18.302;2024-01-16T00:13:06;9.45;;;7.30;;
35562;SDS011;21665;40.108;18.302;2024-01-16T00:15:32;17.25;;;6.95;;
35562;SDS011;21665;40.108;18.302;2024-01-16T00:17:58;15.98;;;7.10;;
35562;SDS011;21665;40.108;18.302;2024-01-16T00:20:25;14.60;;;7.03;;
35562;SDS011;21665;40.108;18.302;2024-01-16T00:22:51;17.67;;;6.57;;
35562;SDS011;21665;40.108;18.302;2024-01-16T00:25:17;20.13;;;5.65;;
35562;SDS011;21665;40.108;18.302;2024-01-16T00:27:46;12.23;;;5.32;;
35562;SDS011;21665;40.108;18.302;2024-01-16T00:30:13;13.40;;;5.68;;
35562;SDS011;21665;40.108;18.302;2024-01-16T00:32:40;12.77;;;5.60;;
35562;SDS011;21665;40.108;18.302;2024-01-16T00:35:06;13.85;;;5.50;;
35562;SDS011;21665;40.108;18.302;2024-01-16T00:37:33;11.90;;;4.80;;
35562;SDS011;21665;40.108;18.302;2024-01-16T00:39:59;14.63;;;5.00;;
35562;SDS011;21665;40.108;18.302;2024-01-16T00:42:25;14.57;;;4.97;;
35562;SDS011;21665;40.108;18.302;2024-01-16T00:44:52;13.48;;;5.35;;
35562;SDS011;21665;40.108;18.302;2024-01-16T00:47:19;11.32;;;5.18;;
35562;SDS011;21665;40.108;18.302;2024-01-16T00:49:45;13.50;;;4.78;;
35562;SDS011;21665;40.108;18.302;2024-01-16T00:52:16;11.75;;;4.70;;
35562;SDS011;21665;40.108;18.302;2024-01-16T00:54:43;14.50;;;5.07;;
35562;SDS011;21665;40.108;18.302;2024-01-16T00:57:09;15.45;;;5.20;;
35562;SDS011;21665;40.108;18.302;2024-01-16T00:59:36;7.05;;;5.03;;
35562;SDS011;21665;40.108;18.302;2024-01-16T01:02:03;11.93;;;5.53;;
35562;SDS011;21665;40.108;18.302;2024-01-16T01:04:32;12.00;;;5.40;;
35562;SDS011;21665;40.108;18.302;2024-01-16T01:06:59;10.90;;;4.70;;
35562;SDS011;21665;40.108;18.302;2024-01-16T01:09:26;16.48;;;5.30;;
35562;SDS011;21665;40.108;18.302;2024-01-16T01:11:52;8.55;;;5.43;;
35562;SDS011;21665;40.108;18.302;2024-01-16T01:14:18;21.20;;;5.57;;
35562;SDS011;21665;40.108;18.302;2024-01-16T01:16:45;11.88;;;5.28;;
35562;SDS011;21665;40.108;18.302;2024-01-16T01:19:11;11.13;;;5.32;;
35562;SDS011;21665;40.108;18.302;2024-01-16T01:21:38;11.30;;;5.95;;
35562;SDS011;21665;40.108;18.302;2024-01-16T01:24:04;8.20;;;5.10;;
35562;SDS011;21665;40.108;18.302;2024-01-16T01:26:34;14.40;;;6.63;;
35562;SDS011;21665;40.108;18.302;2024-01-16T01:29:04;8.10;;;5.68;;
35562;SDS011;21665;40.108;18.302;2024-01-16T01:31:30;17.25;;;5.25;;
35562;SDS011;21665;40.108;18.302;2024-01-16T01:33:57;15.25;;;5.32;;
35562;SDS011;21665;40.108;18.302;2024-01-16T01:36:23;14.32;;;6.05;;
35562;SDS011;21665;40.108;18.302;2024-01-16T01:38:50;12.80;;;6.00;;
35562;SDS011;21665;40.108;18.302;2024-01-16T01:41:19;12.65;;;5.18;;
35562;SDS011;21665;40.108;18.302;2024-01-16T01:43:46;18.75;;;6.07;;
35562;SDS011;21665;40.108;18.302;2024-01-16T01:46:16;15.40;;;5.35;;
35562;SDS011;21665;40.108;18.302;2024-01-16T01:48:44;10.55;;;5.70;;
35562;SDS011;21665;40.108;18.302;2024-01-16T01:51:17;21.50;;;5.68;;
35562;SDS011;21665;40.108;18.302;2024-01-16T01:53:45;10.90;;;5.40;;
35562;SDS011;21665;40.108;18.302;2024-01-16T01:56:15;18.35;;;5.70;;
35562;SDS011;21665;40.108;18.302;2024-01-16T01:58:46;14.65;;;5.43;;
35562;SDS011;21665;40.108;18.302;2024-01-16T02:01:14;15.77;;;6.35;;
35562;SDS011;21665;40.108;18.302;2024-01-16T02:03:43;18.33;;;5.60;;
35562;SDS011;21665;40.108;18.302;2024-01-16T02:06:11;17.20;;;5.78;;
35562;SDS011;21665;40.108;18.302;2024-01-16T02:08:39;19.55;;;5.78;;
35562;SDS011;21665;40.108;18.302;2024-01-16T02:11:06;25.23;;;6.43;;
35562;SDS011;21665;40.108;18.302;2024-01-16T02:13:33;19.70;;;5.68;;
35562;SDS011;21665;40.108;18.302;2024-01-16T02:16:00;15.98;;;5.45;;
35562;SDS011;21665;40.108;18.302;2024-01-16T02:18:26;14.63;;;6.28;;
35562;SDS011;21665;40.108;18.302;2024-01-16T02:20:53;19.92;;;5.75;;
35562;SDS011;21665;40.108;18.302;2024-01-16T02:23:28;8.93;;;5.30;;
35562;SDS011;21665;40.108;18.302;2024-01-16T02:25:56;11.95;;;5.90;;
35562;SDS011;21665;40.108;18.302;2024-01-16T02:28:23;21.00;;;5.43;;
35562;SDS011;21665;40.108;18.302;2024-01-16T02:30:49;18.17;;;5.22;;
35562;SDS011;21665;40.108;18.302;2024-01-16T02:33:16;17.85;;;5.60;;
35562;SDS011;21665;40.108;18.302;2024-01-16T02:35:42;14.45;;;6.07;;
35562;SDS011;21665;40.108;18.302;2024-01-16T02:38:12;12.05;;;5.70;;
35562;SDS011;21665;40.108;18.302;2024-01-16T02:40:38;12.70;;;6.05;;
35562;SDS011;21665;40.108;18.302;2024-01-16T02:43:04;15.60;;;5.90;;
35562;SDS011;21665;40.108;18.302;2024-01-16T02:45:31;20.25;;;5.68;;
35562;SDS011;21665;40.108;18.302;2024-01-16T02:47:58;15.70;;;6.00;;
35562;SDS011;21665;40.108;18.302;2024-01-16T02:50:27;21.88;;;6.18;;
35562;SDS011;21665;40.108;18.302;2024-01-16T02:52:53;14.82;;;5.63;;
35562;SDS011;21665;40.108;18.302;2024-01-16T02:55:20;18.73;;;5.78;;
35562;SDS011;21665;40.108;18.302;2024-01-16T02:57:46;11.48;;;5.70;;
35562;SDS011;21665;40.108;18.302;2024-01-16T03:00:13;20.85;;;5.72;;
35562;SDS011;21665;40.108;18.302;2024-01-16T03:02:39;16.73;;;5.47;;
35562;SDS011;21665;40.108;18.302;2024-01-16T03:05:06;12.88;;;5.55;;
35562;SDS011;21665;40.108;18.302;2024-01-16T03:07:33;16.30;;;5.93;;
35562;SDS011;21665;40.108;18.302;2024-01-16T03:10:00;19.13;;;6.80;;
35562;SDS011;21665;40.108;18.302;2024-01-16T03:12:26;18.20;;;5.75;;
35562;SDS011;21665;40.108;18.302;2024-01-16T03:14:53;9.65;;;5.28;;
35562;SDS011;21665;40.108;18.302;2024-01-16T03:17:19;12.73;;;6.43;;
35562;SDS011;21665;40.108;18.302;2024-01-16T03:19:46;13.32;;;5.97;;
35562;SDS011;21665;40.108;18.302;2024-01-16T03:22:12;12.05;;;5.70;;
35562;SDS011;21665;40.108;18.302;2024-01-16T03:24:39;14.27;;;5.75;;
35562;SDS011;21665;40.108;18.302;2024-01-16T03:27:09;11.10;;;5.78;;
35562;SDS011;21665;40.108;18.302;2024-01-16T03:29:35;15.57;;;6.00;;
35562;SDS011;21665;40.108;18.302;2024-01-16T03:32:02;16.98;;;6.10;;
35562;SDS011;21665;40.108;18.302;2024-01-16T03:34:30;19.52;;;7.30;;
35562;SDS011;21665;40.108;18.302;2024-01-16T03:36:57;15.32;;;6.15;;
35562;SDS011;21665;40.108;18.302;2024-01-16T03:39:23;15.57;;;5.40;;
35562;SDS011;21665;40.108;18.302;2024-01-16T03:41:50;23.50;;;6.05;;
35562;SDS011;21665;40.108;18.302;2024-01-16T03:44:16;15.77;;;6.05;;
35562;SDS011;21665;40.108;18.302;2024-01-16T03:46:42;12.13;;;5.68;;
35562;SDS011;21665;40.108;18.302;2024-01-16T03:49:09;13.90;;;5.53;;
35562;SDS011;21665;40.108;18.302;2024-01-16T03:51:35;13.13;;;5.80;;
35562;SDS011;21665;40.108;18.302;2024-01-16T03:54:02;13.77;;;5.63;;
35562;SDS011;21665;40.108;18.302;2024-01-16T03:56:28;14.10;;;5.88;;
35562;SDS011;21665;40.108;18.302;2024-01-16T03:58:54;18.95;;;6.97;;
35562;SDS011;21665;40.108;18.302;2024-01-16T04:01:30;11.85;;;5.53;;
35562;SDS011;21665;40.108;18.302;2024-01-16T04:03:58;14.80;;;5.50;;
35562;SDS011;21665;40.108;18.302;2024-01-16T04:06:27;9.25;;;5.45;;
35562;SDS011;21665;40.108;18.302;2024-01-16T04:08:58;19.13;;;5.88;;
35562;SDS011;21665;40.108;18.302;2024-01-16T04:11:24;12.18;;;5.10;;
35562;SDS011;21665;40.108;18.302;2024-01-16T04:13:54;16.52;;;5.45;;
35562;SDS011;21665;40.108;18.302;2024-01-16T04:16:20;15.32;;;5.57;;
35562;SDS011;21665;40.108;18.302;2024-01-16T04:18:47;16.55;;;5.50;;
35562;SDS011;21665;40.108;18.302;2024-01-16T04:21:17;30.00;;;12.57;;
35562;SDS011;21665;40.108;18.302;2024-01-16T04:23:44;52.20;;;23.67;;
35562;SDS011;21665;40.108;18.302;2024-01-16T04:26:10;37.25;;;15.85;;
35562;SDS011;21665;40.108;18.302;2024-01-16T04:28:37;28.27;;;14.15;;
35562;SDS011;21665;40.108;18.302;2024-01-16T04:31:03;42.78;;;16.88;;
35562;SDS011;21665;40.108;18.302;2024-01-16T04:33:31;34.70;;;14.95;;
35562;SDS011;21665;40.108;18.302;2024-01-16T04:35:57;30.35;;;13.20;;
35562;SDS011;21665;40.108;18.302;2024-01-16T04:38:24;28.63;;;11.77;;
35562;SDS011;21665;40.108;18.302;2024-01-16T04:40:50;28.42;;;11.30;;
35562;SDS011;21665;40.108;18.302;2024-01-16T04:43:16;24.45;;;9.10;;
35562;SDS011;21665;40.108;18.302;2024-01-16T04:45:43;26.17;;;10.70;;
35562;SDS011;21665;40.108;18.302;2024-01-16T04:48:10;25.17;;;7.00;;
35562;SDS011;21665;40.108;18.302;2024-01-16T04:50:36;17.85;;;9.40;;
35562;SDS011;21665;40.108;18.302;2024-01-16T04:53:12;11.48;;;6.68;;
35562;SDS011;21665;40.108;18.302;2024-01-16T04:55:38;19.67;;;6.93;;
35562;SDS011;21665;40.108;18.302;2024-01-16T04:58:04;21.98;;;7.88;;
35562;SDS011;21665;40.108;18.302;2024-01-16T05:00:31;15.10;;;6.90;;
35562;SDS011;21665;40.108;18.302;2024-01-16T05:02:58;19.20;;;8.88;;
35562;SDS011;21665;40.108;18.302;2024-01-16T05:05:24;15.73;;;7.07;;
35562;SDS011;21665;40.108;18.302;2024-01-16T05:07:51;27.33;;;8.80;;
35562;SDS011;21665;40.108;18.302;2024-01-16T05:10:17;16.75;;;7.25;;
35562;SDS011;21665;40.108;18.302;2024-01-16T05:12:43;22.23;;;7.72;;
35562;SDS011;21665;40.108;18.302;2024-01-16T05:15:10;12.82;;;7.03;;
35562;SDS011;21665;40.108;18.302;2024-01-16T05:17:37;14.73;;;6.20;;
35562;SDS011;21665;40.108;18.302;2024-01-16T05:20:10;15.23;;;6.72;;
35562;SDS011;21665;40.108;18.302;2024-01-16T05:22:36;15.90;;;6.03;;
35562;SDS011;21665;40.108;18.302;2024-01-16T05:25:07;20.33;;;6.57;;
35562;SDS011;21665;40.108;18.302;2024-01-16T05:27:34;10.93;;;6.35;;
35562;SDS011;21665;40.108;18.302;2024-01-16T05:30:00;14.88;;;5.70;;
35562;SDS011;21665;40.108;18.302;2024-01-16T05:32:30;13.73;;;5.60;;
35562;SDS011;21665;40.108;18.302;2024-01-16T05:34:56;20.55;;;6.10;;
35562;SDS011;21665;40.108;18.302;2024-01-16T05:37:23;16.58;;;5.45;;
35562;SDS011;21665;40.108;18.302;2024-01-16T05:39:49;13.60;;;5.88;;
35562;SDS011;21665;40.108;18.302;2024-01-16T05:42:16;13.82;;;5.35;;
35562;SDS011;21665;40.108;18.302;2024-01-16T05:44:43;19.63;;;6.60;;
35562;SDS011;21665;40.108;18.302;2024-01-16T05:47:09;10.68;;;5.50;;
35562;SDS011;21665;40.108;18.302;2024-01-16T05:49:36;12.48;;;5.60;;
35562;SDS011;21665;40.108;18.302;2024-01-16T05:52:02;13.38;;;5.90;;
35562;SDS011;21665;40.108;18.302;2024-01-16T05:54:29;11.57;;;5.13;;
35562;SDS011;21665;40.108;18.302;2024-01-16T05:56:55;16.25;;;5.75;;
35562;SDS011;21665;40.108;18.302;2024-01-16T05:59:21;16.60;;;6.15;;
35562;SDS011;21665;40.108;18.302;2024-01-16T06:01:48;22.10;;;6.35;;
35562;SDS011;21665;40.108;18.302;2024-01-16T06:04:14;10.80;;;5.60;;
35562;SDS011;21665;40.108;18.302;2024-01-16T06:06:41;15.88;;;6.40;;
35562;SDS011;21665;40.108;18.302;2024-01-16T06:09:16;10.63;;;5.80;;
35562;SDS011;21665;40.108;18.302;2024-01-16T06:11:44;14.57;;;6.38;;
35562;SDS011;21665;40.108;18.302;2024-01-16T06:14:10;19.70;;;7.60;;
35562;SDS011;21665;40.108;18.302;2024-01-16T06:16:38;19.55;;;9.38;;
35562;SDS011;21665;40.108;18.302;2024-01-16T06:19:05;22.40;;;9.73;;
35562;SDS011;21665;40.108;18.302;2024-01-16T06:21:33;23.58;;;9.90;;
35562;SDS011;21665;40.108;18.302;2024-01-16T06:23:59;19.48;;;9.38;;
35562;SDS011;21665;40.108;18.302;2024-01-16T06:26:26;20.02;;;10.43;;
35562;SDS011;21665;40.108;18.302;2024-01-16T06:28:53;26.00;;;11.32;;
35562;SDS011;21665;40.108;18.302;2024-01-16T06:31:19;23.40;;;12.45;;
35562;SDS011;21665;40.108;18.302;2024-01-16T06:33:46;22.70;;;12.85;;
35562;SDS011;21665;40.108;18.302;2024-01-16T06:36:12;26.75;;;13.50;;
35562;SDS011;21665;40.108;18.302;2024-01-16T06:38:39;27.83;;;13.60;;
35562;SDS011;21665;40.108;18.302;2024-01-16T06:41:09;30.13;;;12.80;;
35562;SDS011;21665;40.108;18.302;2024-01-16T06:43:36;27.80;;;11.40;;
35562;SDS011;21665;40.108;18.302;2024-01-16T06:46:05;23.88;;;8.98;;
35562;SDS011;21665;40.108;18.302;2024-01-16T06:48:32;17.48;;;8.40;;
35562;SDS011;21665;40.108;18.302;2024-01-16T06:51:01;23.35;;;7.55;;
35562;SDS011;21665;40.108;18.302;2024-01-16T06:53:27;11.90;;;6.13;;
35562;SDS011;21665;40.108;18.302;2024-01-16T06:55:54;14.10;;;6.35;;
35562;SDS011;21665;40.108;18.302;2024-01-16T06:58:20;13.65;;;5.07;;
35562;SDS011;21665;40.108;18.302;2024-01-16T07:00:46;13.40;;;5.10;;
35562;SDS011;21665;40.108;18.302;2024-01-16T07:03:13;14.45;;;4.93;;
35562;SDS011;21665;40.108;18.302;2024-01-16T07:05:40;11.18;;;3.97;;
35562;SDS011;21665;40.108;18.302;2024-01-16T07:08:06;10.90;;;4.13;;
35562;SDS011;21665;40.108;18.302;2024-01-16T07:10:33;13.43;;;4.85;;
35562;SDS011;21665;40.108;18.302;2024-01-16T07:13:01;11.18;;;5.43;;
35562;SDS011;21665;40.108;18.302;2024-01-16T07:15:27;8.70;;;6.25;;
35562;SDS011;21665;40.108;18.302;2024-01-16T07:17:54;11.60;;;7.07;;
35562;SDS011;21665;40.108;18.302;2024-01-16T07:20:20;11.95;;;7.90;;
35562;SDS011;21665;40.108;18.302;2024-01-16T07:22:46;15.55;;;8.63;;
35562;SDS011;21665;40.108;18.302;2024-01-16T07:25:13;19.23;;;10.32;;
35562;SDS011;21665;40.108;18.302;2024-01-16T07:27:40;15.38;;;10.75;;
35562;SDS011;21665;40.108;18.302;2024-01-16T07:30:08;14.48;;;12.50;;
35562;SDS011;21665;40.108;18.302;2024-01-16T07:32:35;17.63;;;13.90;;
35562;SDS011;21665;40.108;18.302;2024-01-16T07:35:02;14.38;;;13.10;;
35562;SDS011;21665;40.108;18.302;2024-01-16T07:37:31;23.13;;;14.27;;
35562;SDS011;21665;40.108;18.302;2024-01-16T07:39:58;16.77;;;15.02;;
35562;SDS011;21665;40.108;18.302;2024-01-16T07:42:24;16.27;;;14.73;;
35562;SDS011;21665;40.108;18.302;2024-01-16T07:44:52;20.65;;;14.77;;
35562;SDS011;21665;40.108;18.302;2024-01-16T07:47:20;19.88;;;15.95;;
35562;SDS011;21665;40.108;18.302;2024-01-16T07:49:47;17.67;;;15.80;;
35562;SDS011;21665;40.108;18.302;2024-01-16T07:52:13;19.50;;;17.55;;
35562;SDS011;21665;40.108;18.302;2024-01-16T07:54:39;21.45;;;19.33;;
35562;SDS011;21665;40.108;18.302;2024-01-16T07:57:06;26.13;;;20.20;;
35562;SDS011;21665;40.108;18.302;2024-01-16T07:59:33;21.63;;;19.52;;
35562;SDS011;21665;40.108;18.302;2024-01-16T08:02:03;24.75;;;20.10;;
35562;SDS011;21665;40.108;18.302;2024-01-16T08:04:32;25.52;;;19.95;;
35562;SDS011;21665;40.108;18.302;2024-01-16T08:06:58;22.98;;;19.38;;
35562;SDS011;21665;40.108;18.302;2024-01-16T08:13:13;20.02;;;18.15;;
35562;SDS011;21665;40.108;18.302;2024-01-16T08:15:40;20.80;;;18.75;;
35562;SDS011;21665;40.108;18.302;2024-01-16T08:18:06;21.55;;;19.20;;
35562;SDS011;21665;40.108;18.302;2024-01-16T08:20:34;20.60;;;18.85;;
35562;SDS011;21665;40.108;18.302;2024-01-16T08:23:01;23.40;;;20.88;;
35562;SDS011;21665;40.108;18.302;2024-01-16T08:25:28;20.92;;;18.98;;
35562;SDS011;21665;40.108;18.302;2024-01-16T08:27:54;20.52;;;18.63;;
35562;SDS011;21665;40.108;18.302;2024-01-16T08:30:20;19.45;;;17.65;;
35562;SDS011;21665;40.108;18.302;2024-01-16T08:32:47;19.25;;;17.58;;
35562;SDS011;21665;40.108;18.302;2024-01-16T08:35:13;20.90;;;17.05;;
35562;SDS011;21665;40.108;18.302;2024-01-16T08:37:40;19.52;;;17.65;;
35562;SDS011;21665;40.108;18.302;2024-01-16T08:40:07;23.77;;;18.55;;
35562;SDS011;21665;40.108;18.302;2024-01-16T08:42:34;19.38;;;17.42;;
35562;SDS011;21665;40.108;18.302;2024-01-16T08:45:01;18.45;;;16.80;;
35562;SDS011;21665;40.108;18.302;2024-01-16T08:47:28;19.48;;;17.40;;
35562;SDS011;21665;40.108;18.302;2024-01-16T08:49:54;19.90;;;16.67;;
35562;SDS011;21665;40.108;18.302;2024-01-16T08:52:21;19.23;;;17.08;;
35562;SDS011;21665;40.108;18.302;2024-01-16T08:54:47;17.65;;;16.15;;
35562;SDS011;21665;40.108;18.302;2024-01-16T08:57:14;17.50;;;16.00;;
35562;SDS011;21665;40.108;18.302;2024-01-16T08:59:40;18.63;;;16.90;;
35562;SDS011;21665;40.108;18.302;2024-01-16T09:02:10;17.88;;;16.67;;
35562;SDS011;21665;40.108;18.302;2024-01-16T09:04:38;20.42;;;18.42;;
35562;SDS011;21665;40.108;18.302;2024-01-16T09:07:05;21.05;;;18.92;;
35562;SDS011;21665;40.108;18.302;2024-01-16T09:09:31;19.95;;;18.13;;
35562;SDS011;21665;40.108;18.302;2024-01-16T09:11:57;20.42;;;18.75;;
35562;SDS011;21665;40.108;18.302;2024-01-16T09:14:28;20.50;;;18.45;;
35562;SDS011;21665;40.108;18.302;2024-01-16T09:16:54;20.42;;;18.50;;
35562;SDS011;21665;40.108;18.302;2024-01-16T09:19:22;20.50;;;18.67;;
35562;SDS011;21665;40.108;18.302;2024-01-16T09:21:48;22.00;;;19.92;;
35562;SDS011;21665;40.108;18.302;2024-01-16T09:24:15;23.02;;;20.27;;
35562;SDS011;21665;40.108;18.302;2024-01-16T09:26:41;21.35;;;19.23;;
35562;SDS011;21665;40.108;18.302;2024-01-16T09:29:09;21.20;;;19.25;;
35562;SDS011;21665;40.108;18.302;2024-01-16T09:31:36;21.80;;;19.63;;
35562;SDS011;21665;40.108;18.302;2024-01-16T09:34:08;20.98;;;19.30;;
35562;SDS011;21665;40.108;18.302;2024-01-16T09:36:43;20.27;;;18.77;;
35562;SDS011;21665;40.108;18.302;2024-01-16T09:39:10;21.30;;;19.23;;
35562;SDS011;21665;40.108;18.302;2024-01-16T09:41:39;20.48;;;18.73;;
35562;SDS011;21665;40.108;18.302;2024-01-16T09:44:09;20.25;;;18.85;;
35562;SDS011;21665;40.108;18.302;2024-01-16T09:46:37;20.52;;;18.90;;
35562;SDS011;21665;40.108;18.302;2024-01-16T09:49:06;22.40;;;20.63;;
35562;SDS011;21665;40.108;18.302;2024-01-16T09:51:33;20.08;;;18.77;;
35562;SDS011;21665;40.108;18.302;2024-01-16T09:54:00;20.45;;;18.80;;
35562;SDS011;21665;40.108;18.302;2024-01-16T09:56:27;23.67;;;21.58;;
35562;SDS011;21665;40.108;18.302;2024-01-16T09:58:58;22.58;;;20.90;;
35562;SDS011;21665;40.108;18.302;2024-01-16T10:01:30;21.38;;;19.27;;
35562;SDS011;21665;40.108;18.302;2024-01-16T10:03:59;21.38;;;19.50;;
35562;SDS011;21665;40.108;18.302;2024-01-16T10:06:27;21.67;;;19.95;;
35562;SDS011;21665;40.108;18.302;2024-01-16T10:08:54;22.88;;;21.27;;
35562;SDS011;21665;40.108;18.302;2024-01-16T10:11:22;23.25;;;21.17;;
35562;SDS011;21665;40.108;18.302;2024-01-16T10:13:49;23.05;;;21.35;;
35562;SDS011;21665;40.108;18.302;2024-01-16T10:16:15;24.17;;;22.23;;
35562;SDS011;21665;40.108;18.302;2024-01-16T10:18:44;22.70;;;21.10;;
35562;SDS011;21665;40.108;18.302;2024-01-16T10:21:22;22.90;;;21.30;;
35562;SDS011;21665;40.108;18.302;2024-01-16T10:23:53;23.55;;;21.85;;
35562;SDS011;21665;40.108;18.302;2024-01-16T10:26:20;24.40;;;22.20;;
35562;SDS011;21665;40.108;18.302;2024-01-16T10:28:51;24.23;;;21.90;;
35562;SDS011;21665;40.108;18.302;2024-01-16T10:31:30;27.20;;;24.75;;
35562;SDS011;21665;40.108;18.302;2024-01-16T10:33:57;25.80;;;23.50;;
35562;SDS011;21665;40.108;18.302;2024-01-16T10:36:24;23.08;;;21.45;;
35562;SDS011;21665;40.108;18.302;2024-01-16T10:39:02;24.67;;;22.40;;
35562;SDS011;21665;40.108;18.302;2024-01-16T10:41:34;30.35;;;27.23;;
35562;SDS011;21665;40.108;18.302;2024-01-16T10:44:05;26.38;;;23.95;;
35562;SDS011;21665;40.108;18.302;2024-01-16T10:46:38;27.08;;;24.95;;
35562;SDS011;21665;40.108;18.302;2024-01-16T10:49:05;27.50;;;25.27;;
35562;SDS011;21665;40.108;18.302;2024-01-16T10:51:35;27.75;;;25.42;;
35562;SDS011;21665;40.108;18.302;2024-01-16T10:54:05;28.38;;;25.98;;
35562;SDS011;21665;40.108;18.302;2024-01-16T10:56:36;28.85;;;26.42;;
35562;SDS011;21665;40.108;18.302;2024-01-16T11:01:59;29.67;;;27.52;;
35562;SDS011;21665;40.108;18.302;2024-01-16T11:04:27;30.25;;;27.95;;
35562;SDS011;21665;40.108;18.302;2024-01-16T11:06:55;30.65;;;28.15;;
35562;SDS011;21665;40.108;18.302;2024-01-16T11:09:21;30.25;;;27.83;;
35562;SDS011;21665;40.108;18.302;2024-01-16T11:11:48;30.38;;;27.83;;
35562;SDS011;21665;40.108;18.302;2024-01-16T11:14:19;31.63;;;28.75;;
35562;SDS011;21665;40.108;18.302;2024-01-16T11:16:48;30.77;;;27.90;;
35562;SDS011;21665;40.108;18.302;2024-01-16T11:19:16;30.80;;;28.17;;
35562;SDS011;21665;40.108;18.302;2024-01-16T11:21:45;32.08;;;29.17;;
35562;SDS011;21665;40.108;18.302;2024-01-16T11:24:12;32.10;;;29.13;;
35562;SDS011;21665;40.108;18.302;2024-01-16T11:26:39;30.50;;;28.15;;
35562;SDS011;21665;40.108;18.302;2024-01-16T11:31:57;30.60;;;27.95;;
35562;SDS011;21665;40.108;18.302;2024-01-16T11:37:10;30.60;;;28.20;;
35562;SDS011;21665;40.108;18.302;2024-01-16T11:39:39;29.90;;;27.42;;
35562;SDS011;21665;40.108;18.302;2024-01-16T11:42:10;30.05;;;27.50;;
35562;SDS011;21665;40.108;18.302;2024-01-16T11:44:55;29.20;;;26.90;;
35562;SDS011;21665;40.108;18.302;2024-01-16T11:47:22;29.25;;;26.98;;
35562;SDS011;21665;40.108;18.302;2024-01-16T11:49:50;29.50;;;26.90;;
35562;SDS011;21665;40.108;18.302;2024-01-16T11:52:41;32.33;;;27.58;;
35562;SDS011;21665;40.108;18.302;2024-01-16T11:55:28;30.90;;;28.13;;
35562;SDS011;21665;40.108;18.302;2024-01-16T12:00:44;29.40;;;27.08;;
35562;SDS011;21665;40.108;18.302;2024-01-16T12:03:17;29.73;;;27.13;;
35562;SDS011;21665;40.108;18.302;2024-01-16T12:05:57;28.63;;;26.40;;
35562;SDS011;21665;40.108;18.302;2024-01-16T12:08:24;29.33;;;26.92;;
35562;SDS011;21665;40.108;18.302;2024-01-16T12:10:51;30.75;;;28.10;;
35562;SDS011;21665;40.108;18.302;2024-01-16T12:13:18;29.42;;;26.80;;
35562;SDS011;21665;40.108;18.302;2024-01-16T12:15:45;29.90;;;27.08;;
35562;SDS011;21665;40.108;18.302;2024-01-16T12:18:17;29.85;;;27.33;;
35562;SDS011;21665;40.108;18.302;2024-01-16T12:20:44;29.38;;;27.08;;
35562;SDS011;21665;40.108;18.302;2024-01-16T12:23:14;30.70;;;27.80;;
35562;SDS011;21665;40.108;18.302;2024-01-16T12:25:44;29.40;;;27.20;;
35562;SDS011;21665;40.108;18.302;2024-01-16T12:28:10;28.90;;;26.80;;
35562;SDS011;21665;40.108;18.302;2024-01-16T12:30:48;28.67;;;26.52;;
35562;SDS011;21665;40.108;18.302;2024-01-16T12:33:20;30.10;;;27.67;;
35562;SDS011;21665;40.108;18.302;2024-01-16T12:35:48;29.65;;;27.40;;
35562;SDS011;21665;40.108;18.302;2024-01-16T12:38:15;29.73;;;27.48;;
35562;SDS011;21665;40.108;18.302;2024-01-16T12:40:47;29.65;;;27.05;;
35562;SDS011;21665;40.108;18.302;2024-01-16T12:43:19;29.33;;;27.10;;
35562;SDS011;21665;40.108;18.302;2024-01-16T12:45:56;29.25;;;27.05;;
35562;SDS011;21665;40.108;18.302;2024-01-16T12:48:23;29.30;;;26.88;;
35562;SDS011;21665;40.108;18.302;2024-01-16T12:50:58;28.45;;;26.55;;
35562;SDS011;21665;40.108;18.302;2024-01-16T12:53:27;29.85;;;27.33;;
35562;SDS011;21665;40.108;18.302;2024-01-16T12:55:58;29.52;;;27.00;;
35562;SDS011;21665;40.108;18.302;2024-01-16T12:58:31;29.13;;;26.90;;
35562;SDS011;21665;40.108;18.302;2024-01-16T13:03:50;30.02;;;27.73;;
35562;SDS011;21665;40.108;18.302;2024-01-16T13:06:20;30.05;;;27.75;;
35562;SDS011;21665;40.108;18.302;2024-01-16T13:08:50;32.33;;;29.63;;
35562;SDS011;21665;40.108;18.302;2024-01-16T13:11:31;31.35;;;28.92;;
35562;SDS011;21665;40.108;18.302;2024-01-16T13:14:00;31.45;;;28.52;;
35562;SDS011;21665;40.108;18.302;2024-01-16T13:16:31;31.98;;;29.42;;
35562;SDS011;21665;40.108;18.302;2024-01-16T13:19:01;31.90;;;29.17;;
35562;SDS011;21665;40.108;18.302;2024-01-16T13:21:30;29.77;;;27.58;;
35562;SDS011;21665;40.108;18.302;2024-01-16T13:23:57;32.13;;;29.30;;
35562;SDS011;21665;40.108;18.302;2024-01-16T13:26:24;31.17;;;28.50;;
35562;SDS011;21665;40.108;18.302;2024-01-16T13:28:50;32.50;;;29.75;;
35562;SDS011;21665;40.108;18.302;2024-01-16T13:31:17;31.30;;;28.65;;
35562;SDS011;21665;40.108;18.302;2024-01-16T13:33:44;34.92;;;31.85;;
35562;SDS011;21665;40.108;18.302;2024-01-16T13:36:10;31.00;;;28.35;;
35562;SDS011;21665;40.108;18.302;2024-01-16T13:38:37;29.60;;;26.90;;
35562;SDS011;21665;40.108;18.302;2024-01-16T13:41:03;28.73;;;26.30;;
35562;SDS011;21665;40.108;18.302;2024-01-16T13:43:31;27.60;;;25.40;;
35562;SDS011;21665;40.108;18.302;2024-01-16T13:45:58;26.67;;;24.70;;
35562;SDS011;21665;40.108;18.302;2024-01-16T13:48:26;27.25;;;25.10;;
35562;SDS011;21665;40.108;18.302;2024-01-16T13:50:52;28.02;;;25.52;;
35562;SDS011;21665;40.108;18.302;2024-01-16T13:53:19;27.67;;;25.25;;
35562;SDS011;21665;40.108;18.302;2024-01-16T13:55:45;28.35;;;25.67;;
35562;SDS011;21665;40.108;18.302;2024-01-16T13:58:12;28.52;;;25.75;;
35562;SDS011;21665;40.108;18.302;2024-01-16T14:00:39;27.85;;;25.17;;
35562;SDS011;21665;40.108;18.302;2024-01-16T14:03:06;27.55;;;24.92;;
35562;SDS011;21665;40.108;18.302;2024-01-16T14:05:33;26.55;;;24.25;;
35562;SDS011;21665;40.108;18.302;2024-01-16T14:08:01;25.65;;;23.55;;
35562;SDS011;21665;40.108;18.302;2024-01-16T14:10:30;25.10;;;22.80;;
35562;SDS011;21665;40.108;18.302;2024-01-16T14:12:57;24.08;;;22.10;;
35562;SDS011;21665;40.108;18.302;2024-01-16T14:15:26;25.15;;;22.55;;
35562;SDS011;21665;40.108;18.302;2024-01-16T14:18:01;24.52;;;22.20;;
35562;SDS011;21665;40.108;18.302;2024-01-16T14:20:32;25.52;;;23.27;;
35562;SDS011;21665;40.108;18.302;2024-01-16T14:22:58;24.50;;;22.80;;
35562;SDS011;21665;40.108;18.302;2024-01-16T14:25:25;25.15;;;22.52;;
35562;SDS011;21665;40.108;18.302;2024-01-16T14:27:57;26.02;;;23.58;;
35562;SDS011;21665;40.108;18.302;2024-01-16T14:30:26;25.13;;;22.67;;
35562;SDS011;21665;40.108;18.302;2024-01-16T14:32:53;25.65;;;23.10;;
35562;SDS011;21665;40.108;18.302;2024-01-16T14:35:22;25.77;;;23.13;;
35562;SDS011;21665;40.108;18.302;2024-01-16T14:37:50;25.70;;;22.95;;